Weather observations for the past three days for
Richmond Municipal Airport
Metric (Imperial)
Date Time (edt) Wind (kph) Vis. (km) Weather Sky Cond. Temperature (ºC) Relative Humidity Wind Chill (°C) Heat Index (°C) Pressure Precipitation (cm)
Air Dwpt 6 hour altimeter (cm) sea level (mb) 1 hr 3 hr 6 hr
Max. Min.
31 21:15 SE 7 16.09 Fair CLR 23 22 94% 76.4 0.0
31 20:55 SE 6 16.09 Fair CLR 23 22 94% 76.4 0.0
31 20:35 Calm 16.09 Fair CLR 25 22 83% 26 76.4 0.0
31 20:15 S 6 16.09 Fair CLR 26 22 79% 28 76.38 0.0
31 19:55 SW 7 16.09 Fair CLR 26 22 79% 28 76.35 0.0
31 19:35 SW 7 16.09 Fair CLR 27 23 79% 30 76.35 0.0
31 19:15 SW 9 16.09 Fair CLR 28 22 70% 31 76.35 0.0
31 18:55 SW 13 16.09 Fair CLR 28 22 70% 31 76.33 0.0
31 18:35 SW 17 16.09 Fair CLR 29 22 66% 32 76.35 0.0
31 18:15 SW 19 16.09 Fair CLR 30 21 59% 33 76.35 0.0
31 17:55 SW 20 16.09 Fair CLR 30 21 59% 33 76.35 0.0
31 17:35 SW 20 16.09 Fair CLR 30 21 59% 33 76.38 0.0
31 17:15 SW 19 16.09 Fair CLR 30 21 59% 33 76.4 0.0
31 16:55 SW 13 16.09 Fair CLR 30 22 62% 33 76.4 0.0
31 16:35 SW 13 16.09 Fair CLR 30 22 62% 33 76.43 0.0
31 16:15 SW 17 16.09 Partly Cloudy SCT070 31 21 55% 34 76.45 0.0
31 15:55 SW 20 16.09 Partly Cloudy SCT046 SCT049 SCT070 31 22 59% 35 76.48 0.0
31 15:35 SW 19 16.09 Fair CLR 31 22 59% 35 76.5 0.0
31 15:15 W 13 16.09 Partly Cloudy SCT045 SCT050 31 22 59% 35 76.5 0.0
31 14:55 W 19 G 28 16.09 Partly Cloudy SCT045 SCT055 30 22 62% 33 76.5 0.0
31 14:35 W 15 16.09 Partly Cloudy SCT043 31 21 55% 34 76.53 0.0
31 14:15 W 19 16.09 Fair CLR 30 22 62% 33 76.53 0.0
31 13:55 W 22 16.09 Partly Cloudy SCT037 SCT044 SCT050 30 22 62% 33 76.53 0.0
31 13:35 W 20 G 28 16.09 Partly Cloudy SCT037 SCT043 SCT050 30 22 62% 33 76.53 0.0
31 13:15 SW 17 16.09 Fair CLR 29 24 74% 34 76.56 0.0
31 12:55 W 17 G 26 16.09 Fair CLR 29 23 70% 33 76.56 0.0
31 12:35 SW 13 16.09 Fair CLR 28 23 74% 31 76.58 0.0
31 12:15 SW 13 16.09 Fair CLR 27 23 79% 30 76.56 0.0
31 11:55 SW 15 16.09 Fair CLR 27 23 79% 30 76.56 0.0
31 11:35 SW 13 16.09 Fair CLR 27 22 74% 29 76.56 0.0
31 10:55 SW 19 16.09 Fair CLR 27 22 74% 29 76.56 0.0
31 10:35 SW 17 16.09 Fair CLR 26 22 79% 28 76.53 0.0
31 10:15 SW 11 16.09 Partly Cloudy SCT048 26 22 79% 28 76.53 0.0
31 09:55 SW 9 16.09 Partly Cloudy SCT048 24 21 83% 24 76.53 0.0
31 09:35 Calm 16.09 Fair CLR 23 21 89% 76.53 0.0
31 09:15 Calm 16.09 Fair CLR 22 21 94% 76.53 0.0
31 08:55 Calm 16.09 Fair CLR 22 20 88% 76.53 0.0
31 08:35 Calm 16.09 Fair CLR 21 20 94% 76.5 0.0
31 08:15 Calm 16.09 Fair CLR 20 20 100% 76.5 0.0
31 07:55 SE 6 16.09 Fair CLR 20 19 94% 76.5 0.0
31 07:35 SE 6 16.09 Fair CLR 20 19 94% 76.5 0.0
31 07:15 Calm 16.09 Fair CLR 20 19 94% 76.48 0.0
31 06:55 S 6 16.09 Fair CLR 20 20 100% 76.48 0.0
31 06:35 S 7 16.09 Fair CLR 21 20 94% 76.45 0.0
31 06:15 S 7 16.09 Fair CLR 20 20 100% 76.45 0.0
31 05:55 S 6 16.09 Fair CLR 20 19 94% 76.45 0.0
31 05:35 S 6 16.09 Fair CLR 20 19 94% 76.45 0.0
31 05:15 Calm 16.09 Fair CLR 20 20 100% 76.45 0.0
31 04:55 Calm 16.09 Fair CLR 20 20 100% 76.45 0.0
31 04:35 SE 6 16.09 Fair CLR 20 20 100% 76.45 0.0
31 04:15 Calm 16.09 Fair CLR 20 20 100% 76.43 0.0
31 03:55 SE 6 16.09 Fair CLR 21 19 88% 76.43 0.0
31 03:35 SE 9 16.09 Fair CLR 20 19 94% 76.4 0.0
31 03:15 SE 6 16.09 Fair CLR 20 19 94% 76.43 0.0
31 02:55 SE 7 16.09 Fair CLR 20 19 94% 76.43 0.0
31 02:35 SE 7 16.09 Fair CLR 20 19 94% 76.45 0.0
31 02:15 SE 7 16.09 Fair CLR 20 19 94% 76.48 0.0
31 01:55 SE 7 16.09 Fair CLR 21 20 94% 76.48 0.0
31 01:35 SE 9 16.09 Fair CLR 20 20 100% 76.48 0.0
31 01:15 SE 7 16.09 Fair CLR 21 20 94% 76.48 0.0
31 00:55 SE 9 16.09 Fair CLR 20 19 94% 76.48 0.0
31 00:35 SE 9 16.09 Fair CLR 20 19 94% 76.48 0.0
31 00:15 SE 9 16.09 Fair CLR 20 20 100% 76.48 0.0
30 23:55 SE 6 16.09 Fair CLR 20 20 100% 76.48 0.0
30 23:35 SE 7 16.09 Fair CLR 20 20 100% 76.48 0.0
30 23:15 SE 6 16.09 Fair CLR 20 20 100% 76.5 0.0
30 22:55 E 9 16.09 Fair CLR 20 20 100% 76.5 0.0
30 22:35 SE 7 16.09 Fair CLR 20 20 100% 76.48 0.0
30 22:15 E 6 16.09 Fair CLR 20 20 100% 76.48 0.0
30 21:55 SE 7 16.09 Fair CLR 21 20 94% 76.48 0.0
30 21:35 E 7 16.09 Fair CLR 21 21 100% 76.48 0.0
30 20:55 Calm 16.09 Fair CLR 22 21 94% 76.45 0.0
30 20:35 NE 6 16.09 Fair CLR 22 21 94% 76.45 0.0
30 19:55 Calm 16.09 Fair CLR 24 22 89% 24 76.45 0.0
30 19:35 Calm 16.09 Fair CLR 25 21 79% 26 76.45 0.0
30 19:15 SW 6 16.09 Fair CLR 25 21 79% 26 76.43 0.0
30 18:55 Calm 16.09 Fair CLR 26 21 74% 27 76.43 0.0
30 18:35 Calm 16.09 Fair CLR 26 21 74% 27 76.4 0.0
30 18:15 S 6 16.09 Fair CLR 26 21 74% 27 76.4 0.0
30 17:55 S 6 16.09 Fair CLR 26 21 74% 27 76.4 0.0
30 17:35 S 6 16.09 Fair CLR 26 21 74% 27 76.43 0.0
30 17:15 Calm 16.09 Fair CLR 26 21 74% 27 76.43 0.0
30 16:55 S 9 16.09 Partly Cloudy SCT065 SCT110 25 20 74% 26 76.43 0.0
30 16:35 S 6 16.09 Partly Cloudy SCT065 SCT075 SCT110 26 19 65% 27 76.45 0.0
30 16:15 S 11 16.09 Partly Cloudy SCT110 26 19 65% 27 76.45 0.0
30 15:55 S 7 16.09 Fair CLR 27 19 62% 28 76.5 0.0
30 15:35 S 6 16.09 Fair CLR 26 19 65% 27 76.53 0.0
30 15:15 Calm 16.09 Fair CLR 27 18 58% 28 76.58 0.0
30 14:55 Calm 16.09 Fair CLR 27 18 58% 28 76.58 0.0
30 14:15 W 7 16.09 Fair CLR 27 18 58% 28 76.63 0.0
30 13:55 SW 6 16.09 Fair CLR 27 20 66% 29 76.66 0.0
30 13:35 Calm 16.09 Partly Cloudy SCT120 27 20 66% 29 76.68 0.0
30 13:15 NW 9 16.09 Mostly Cloudy BKN110 27 20 66% 29 76.68 0.0
30 12:55 W 7 16.09 Mostly Cloudy BKN110 26 20 70% 27 76.71 0.0
30 12:35 W 7 16.09 Mostly Cloudy BKN120 27 20 66% 29 76.68 0.0
30 12:15 SW 15 16.09 Mostly Cloudy BKN120 26 20 70% 27 76.66 0.0
30 11:55 SW 15 16.09 Fair CLR 26 20 70% 27 76.66 0.0
30 11:35 SW 15 16.09 Fair CLR 26 20 70% 27 76.61 0.0
30 11:15 S 11 16.09 Fair CLR 26 20 70% 27 76.61 0.0
30 10:55 SW 13 16.09 Fair CLR 26 20 70% 27 76.58 0.0
30 10:35 SW 9 16.09 Fair CLR 25 20 74% 26 76.56 0.0
30 10:15 SW 11 16.09 Fair CLR 25 20 74% 26 76.56 0.0
30 09:55 S 7 16.09 Fair CLR 23 20 83% 76.53 0.0
30 09:35 S 6 16.09 Fair CLR 22 19 83% 76.53 0.0
30 09:15 S 6 16.09 Fair CLR 21 19 88% 76.56 0.0
30 08:55 S 6 16.09 Fair CLR 21 18 83% 76.56 0.0
30 08:35 SE 6 16.09 Fair CLR 20 18 88% 76.56 0.0
30 08:15 Calm 16.09 Fair CLR 18 18 100% 76.58 0.0
30 07:55 E 6 11.27 Partly Cloudy SCT110 17 17 100% 76.58 0.0
30 07:15 E 6 16.09 Fair CLR 17 17 100% 76.56 0.0
30 06:55 Calm 11.27 Fair CLR 17 17 100% 76.53 0.0
30 06:35 SE 6 16.09 Fair CLR 17 17 100% 76.53 0.0
30 06:15 Calm 16.09 Fair CLR 17 17 100% 76.53 0.0
30 05:55 SE 7 16.09 Fair CLR 17 17 100% 76.5 0.0
30 05:35 SE 6 16.09 Fair CLR 17 17 100% 76.53 0.0
30 05:15 SE 6 16.09 Fair CLR 18 17 94% 76.53 0.0
30 04:55 SE 7 16.09 Fair CLR 18 17 94% 76.53 0.0
30 04:35 SE 7 16.09 Partly Cloudy SCT120 18 17 94% 76.53 0.0
30 04:15 SE 6 16.09 Mostly Cloudy BKN120 18 17 94% 76.53 0.0
30 03:55 SE 7 16.09 Mostly Cloudy BKN120 18 17 94% 76.53 0.0
30 03:35 SE 7 16.09 Partly Cloudy SCT120 18 17 94% 76.56 0.0
30 02:55 SE 7 16.09 Fair CLR 18 17 94% 76.56 0.0
30 02:35 SE 7 11.27 Fair CLR 18 17 94% 76.58 0.0
30 02:15 SE 6 16.09 Fair CLR 17 17 100% 76.58 0.0
30 01:55 SE 6 16.09 Fair CLR 17 17 100% 76.58 0.0
30 01:35 Calm 16.09 Fair CLR 17 17 100% 76.58 0.0
30 01:15 Calm 16.09 Fair CLR 17 17 100% 76.58 0.0
30 00:55 Calm 16.09 Fair CLR 17 17 100% 76.58 0.0
30 00:35 Calm 16.09 Fair CLR 17 17 100% 76.58 0.0
30 00:15 E 6 11.27 Fair CLR 17 17 100% 76.56 0.0
29 23:55 E 6 11.27 Fair CLR 17 17 100% 76.56 0.0
29 23:35 Calm 16.09 Fair CLR 17 17 100% 76.56 0.0
29 23:15 SE 7 16.09 Fair CLR 17 17 100% 76.56 0.0
29 22:55 Calm 16.09 Fair CLR 18 18 100% 76.58 0.0
29 22:35 Calm 16.09 Fair CLR 18 18 100% 76.58 0.0
29 22:15 E 6 16.09 Fair CLR 18 18 100% 76.56 0.0
29 21:55 E 7 16.09 Fair CLR 19 18 94% 76.56 0.0
29 21:35 Calm 16.09 Fair CLR 19 18 94% 76.56 0.0
29 21:15 Calm 16.09 Fair CLR 20 19 94% 76.53 0.0
29 20:35 Calm 16.09 Fair CLR 22 19 83% 76.53 0.0
29 20:15 Calm 16.09 Fair CLR 22 19 83% 76.53 0.0
29 19:55 W 7 16.09 Fair CLR 23 19 78% 76.53 0.0
29 19:35 SW 6 16.09 Fair CLR 24 20 78% 24 76.56 0.0
29 19:15 SW 6 16.09 Fair CLR 24 19 74% 25 76.56 0.0
29 18:55 Calm 16.09 Fair CLR 25 20 74% 26 76.56 0.0
29 18:35 SW 6 16.09 Fair CLR 24 19 74% 25 76.56 0.0
29 18:15 SW 6 16.09 Fair CLR 25 20 74% 26 76.56 0.0
29 17:55 SW 6 16.09 Fair CLR 25 19 69% 26 76.56 0.0
29 17:35 SW 6 16.09 Fair CLR 26 18 61% 27 76.56 0.0
29 17:15 Calm 16.09 Partly Cloudy SCT060 26 18 61% 27 76.56 0.0
29 16:55 S 6 16.09 Partly Cloudy SCT060 26 18 61% 27 76.58 0.0
29 16:35 SW 7 16.09 Partly Cloudy SCT046 SCT060 26 18 61% 27 76.61 0.0
29 16:15 SW 7 16.09 Partly Cloudy SCT046 27 17 54% 28 76.61 0.0
29 15:55 SE 6 16.09 Mostly Cloudy BKN046 26 17 58% 27 76.63 0.0
29 15:35 Calm 16.09 Partly Cloudy SCT046 SCT050 26 17 58% 27 76.63 0.0
29 15:15 Calm 16.09 Fair CLR 26 17 58% 27 76.66 0.0
29 14:55 S 9 16.09 Fair CLR 27 17 54% 28 76.68 0.0
29 14:35 S 7 16.09 Partly Cloudy SCT044 27 18 58% 28 76.71 0.0
29 14:15 Calm 16.09 Partly Cloudy SCT041 SCT048 26 17 58% 27 76.71 0.0
29 13:55 Calm 16.09 Partly Cloudy SCT038 SCT046 26 17 58% 27 76.73 0.0
29 12:35 Calm 16.09 Fair CLR 25 18 65% 26 76.78 0.0
29 12:15 Calm 16.09 Fair CLR 25 18 65% 26 76.78 0.0
29 11:55 SW 7 16.09 Fair CLR 24 18 69% 25 76.78 0.0
29 11:35 SE 6 16.09 Partly Cloudy SCT049 24 18 69% 25 76.78 0.0
29 11:15 Calm 16.09 Fair CLR 23 18 74% 76.81 0.0
29 10:55 SE 7 16.09 Partly Cloudy SCT050 23 18 74% 76.78 0.0
29 10:35 SE 7 16.09 Mostly Cloudy BKN050 22 18 78% 76.78 0.0
29 10:15 SE 11 16.09 Fair CLR 22 17 73% 76.76 0.0
29 09:55 SE 11 16.09 Fair CLR 21 17 78% 76.76 0.0
29 09:35 SE 11 16.09 Fair CLR 20 17 83% 76.76 0.0
29 09:15 E 9 16.09 Partly Cloudy SCT049 18 16 88% 76.76 0.0
29 08:55 E 7 16.09 Mostly Cloudy BKN049 18 16 88% 76.78 0.0
29 08:35 Calm 16.09 Partly Cloudy SCT049 16 15 94% 76.76 0.0
29 08:15 E 6 16.09 Partly Cloudy SCT049 16 15 94% 76.76 0.0
29 07:55 E 6 16.09 Partly Cloudy SCT049 15 14 94% 76.73 0.0
29 07:35 E 7 16.09 Mostly Cloudy BKN047 15 13 88% 76.71 0.0
29 07:15 E 9 16.09 Partly Cloudy SCT049 14 13 94% 76.68 0.0
29 06:55 E 9 16.09 Partly Cloudy SCT049 14 13 94% 76.68 0.0
29 06:35 E 9 16.09 Fair CLR 14 13 94% 76.68 0.0
29 06:15 E 9 16.09 Partly Cloudy SCT048 14 13 94% 76.66 0.0
29 05:55 E 9 16.09 Fair CLR 15 13 88% 76.68 0.0
29 05:35 E 9 16.09 Partly Cloudy SCT050 15 13 88% 76.68 0.0
29 05:15 E 9 16.09 Partly Cloudy SCT050 15 13 88% 76.71 0.0
29 04:55 E 7 16.09 Partly Cloudy SCT050 15 13 88% 76.71 0.0
29 04:35 E 9 16.09 Partly Cloudy SCT050 15 13 88% 76.71 0.0
29 04:15 E 9 16.09 Fair CLR 15 13 88% 76.71 0.0
29 03:55 E 7 16.09 Fair CLR 15 14 94% 76.71 0.0
29 03:35 NE 6 16.09 Fair CLR 15 14 94% 76.71 0.0
29 03:15 E 7 16.09 Partly Cloudy SCT050 15 14 94% 76.71 0.0
29 02:55 NE 7 16.09 Partly Cloudy SCT047 SCT050 15 15 100% 76.71 0.0
29 02:35 NE 7 16.09 Mostly Cloudy SCT047 BKN050 16 15 94% 76.71 0.0
29 02:15 NE 6 16.09 Mostly Cloudy BKN050 16 15 94% 76.68 0.0
29 01:55 E 7 16.09 Mostly Cloudy BKN050 16 15 94% 76.71 0.0
29 01:35 E 9 16.09 Partly Cloudy SCT050 16 15 94% 76.71 0.0
29 01:15 NE 9 16.09 Fair CLR 16 15 94% 76.71 0.0
29 00:55 NE 7 16.09 Fair CLR 16 15 94% 76.71 0.0
29 00:35 NE 7 16.09 Fair CLR 16 15 94% 76.71 0.0
29 00:15 NE 9 16.09 Partly Cloudy SCT050 17 15 88% 76.68 0.0
28 23:55 NE 7 16.09 Mostly Cloudy BKN050 17 16 94% 76.68 0.0
28 23:35 NE 7 16.09 Partly Cloudy SCT050 17 16 94% 76.66 0.0
28 23:15 NE 6 16.09 Fair CLR 17 15 88% 76.66 0.0
28 22:55 N 7 16.09 Fair CLR 18 16 88% 76.68 0.0
28 22:35 N 6 16.09 Fair CLR 18 16 88% 76.68 0.0
28 22:15 NE 6 16.09 Fair CLR 18 16 88% 76.66 0.0
28 21:55 NE 7 16.09 Fair CLR 18 16 88% 76.63 0.0
28 21:35 NE 6 16.09 Fair CLR 18 16 88% 76.61 0.0
Date Time (edt) Wind (kph) Vis. (km) Weather Sky Cond. Air Dwpt Max. Min. Relative Humidity Wind Chill (°C) Heat Index (°C) altimeter (cm) sea level (mb) 1 hr 3 hr 6 hr
6 hour
Temperature (ºC) Pressure Precipitation (cm)